Latest Weather Observations for Latrobe Valley

IDV60801

Issued at 10:02 pm EST Saturday 1 August 2015 (issued every 30 minutes, with the page automatically refreshed every 10 minutes)

About weather observations | Map of weather stations | Latest weather observations for VIC | Other Formats
Station Details ID: 085280 Name: LATROBE VALLEY AIRPORT Lat: -38.21 Lon: 146.47 Height: 55.7 m
Data from the previous 72 hours. | See also: Recent months at Latrobe Valley
Date/Time
EST
Temp
°C
App
Temp
°C
Dew
Point
Rel
Hum
%
Delta-T
°C
Wind Press
QNH
hPa
Press
MSL
hPa
Rain
since 9 am
mm
Dir
 
Spd
km/h
Gust
km/h
Spd
kts
Gust
kts
01/10:00pm 5.7 3.6 5.6 99 0.0 W 6 7 3 4 1015.9 1016.0 1.4
01/09:30pm 5.9 3.7 5.3 96 0.3 SW 6 7 3 4 1015.7 1015.8 1.4
01/09:00pm 6.0 3.9 5.9 99 0.0 SSW 6 7 3 4 1015.8 1015.9 1.4
01/08:30pm 6.4 5.4 5.8 96 0.3 CALM 0 0 0 0 1015.7 1015.8 1.4
01/08:00pm 6.7 3.3 6.0 95 0.3 W 13 15 7 8 1015.8 1015.9 1.4
01/07:30pm 6.7 3.3 6.0 95 0.3 WNW 13 17 7 9 1015.9 1016.0 1.4
01/07:00pm 6.6 3.2 6.0 96 0.3 WNW 13 15 7 8 1015.7 1015.8 1.4
01/06:30pm 6.7 3.6 5.5 92 0.5 WNW 11 11 6 6 1015.4 1015.4 1.4
01/06:00pm 6.8 4.1 5.6 92 0.5 NW 9 11 5 6 1015.1 1015.1 1.4
01/05:30pm 7.4 4.3 5.4 87 0.9 WSW 11 13 6 7 1014.8 1014.8 1.4
01/05:00pm 8.4 5.2 5.3 81 1.4 WSW 11 17 6 9 1014.5 1014.5 1.4
01/04:30pm 9.0 5.6 6.1 82 1.3 W 13 17 7 9 1014.4 1014.4 1.4
01/04:00pm 9.4 5.8 6.7 83 1.3 W 15 20 8 11 1014.2 1014.2 1.4
01/03:30pm 9.8 6.0 7.7 87 1.0 WNW 17 22 9 12 1013.8 1013.8 1.4
01/03:00pm 9.5 6.1 9.0 97 0.2 WNW 17 20 9 11 1013.6 1013.6 1.4
01/02:30pm 9.5 5.2 9.2 98 0.1 WNW 22 30 12 16 1013.3 1013.3 1.4
01/02:00pm 9.3 5.0 9.2 99 0.0 WNW 22 28 12 15 1013.0 1013.1 1.4
01/01:30pm 8.8 3.6 8.7 99 0.0 WNW 26 33 14 18 1012.8 1012.9 1.4
01/01:00pm 8.5 3.6 8.4 99 0.0 WNW 24 32 13 17 1012.9 1013.0 1.4
01/12:59pm 8.4 3.1 8.3 99 0.0 WNW 26 33 14 18 1012.9 1013.0 1.4
01/12:30pm 8.3 2.6 8.3 100 0.0 W 28 39 15 21 1013.5 1013.5 1.2
01/12:22pm 8.9 4.5 8.9 100 0.0 W 22 32 12 17 1013.4 1013.4 1.2
01/12:00pm 9.2 5.2 9.2 100 0.0 W 20 28 11 15 1013.1 1013.2 1.2
01/11:30am 9.2 4.3 8.6 96 0.3 W 24 33 13 18 1013.0 1013.1 1.2
01/11:05am 9.0 3.4 8.9 99 0.0 WSW 28 37 15 20 1013.1 1013.2 1.2
01/11:00am 8.9 2.9 8.8 99 0.0 WSW 30 39 16 21 1013.1 1013.2 1.2
01/10:31am 9.3 5.0 9.3 100 0.0 WSW 22 30 12 16 1012.3 1012.4 1.2
01/10:30am 9.4 5.1 9.4 100 0.0 WSW 22 30 12 16 1012.2 1012.3 1.2
01/10:13am 9.3 4.2 9.3 100 0.0 WSW 26 33 14 18 1011.8 1011.9 1.2
01/10:06am 9.4 4.4 9.4 100 0.0 WSW 26 37 14 20 1011.6 1011.7 1.2
01/10:00am 9.5 4.5 9.5 100 0.0 WSW 26 35 14 19 1011.5 1011.6 1.2
01/09:31am 10.6 7.0 10.6 100 0.0 W 20 32 11 17 1010.5 1010.6 0.8
01/09:30am 10.6 7.0 10.6 100 0.0 W 20 32 11 17 1010.5 1010.6 0.6
01/09:14am 10.6 6.3 10.6 100 0.0 W 24 35 13 19 1010.2 1010.3 0.4
01/09:00am 10.7 6.4 10.7 100 0.0 W 24 35 13 19 1010.0 1010.1 2.8
01/08:44am 10.5 6.9 10.5 100 0.0 W 20 30 11 16 1009.7 1009.8 2.6
01/08:30am 10.6 6.3 10.6 100 0.0 WSW 24 32 13 17 1009.4 1009.5 2.2
01/08:14am 10.7 7.3 10.7 100 0.0 WSW 19 22 10 12 1009.0 1009.1 1.4
01/08:00am 11.1 7.9 11.1 100 0.0 W 19 24 10 13 1008.4 1008.5 0.8
01/07:30am 11.5 7.0 11.3 99 0.1 W 26 37 14 20 1007.8 1007.9 0.6
01/07:19am 11.4 6.5 11.2 99 0.1 W 28 43 15 23 1007.8 1007.9 0.4
01/07:00am 11.1 8.1 10.6 97 0.3 SW 17 20 9 11 1007.7 1007.8 0.2
01/06:30am 12.0 10.3 9.9 87 1.1 SW 9 13 5 7 1007.0 1007.1 0.2
01/06:00am 11.8 10.1 9.9 88 1.0 SW 9 17 5 9 1007.1 1007.2 0.2
01/05:30am 11.0 9.2 9.3 89 0.9 WSW 9 13 5 7 1007.3 1007.4 0.0
01/05:00am 8.2 5.6 7.8 97 0.2 S 11 19 6 10 1007.5 1007.6 0.0
01/04:30am 4.9 3.0 4.9 100 0.0 NW 4 9 2 5 1007.6 1007.7 0.0
01/04:00am 4.8 2.5 4.8 100 0.0 W 6 15 3 8 1007.9 1008.0 0.0
01/03:30am 4.6 2.6 4.6 100 0.0 SE 4 9 2 5 1008.5 1008.6 0.0
01/03:00am 3.9 2.6 3.9 100 0.0 CALM 0 0 0 0 1009.3 1009.4 0.0
01/02:30am 3.3 0.5 3.3 100 0.0 NE 7 13 4 7 1010.2 1010.3 0.0
01/02:00am 3.5 1.0 3.5 100 0.0 ENE 6 7 3 4 1011.4 1011.5 0.0
01/01:30am 3.0 -0.6 3.0 100 0.0 NE 11 15 6 8 1012.2 1012.4 0.0
01/01:00am 1.9 -1.1 1.9 100 0.0 NNW 7 9 4 5 1012.8 1013.0 0.0
01/12:30am 3.3 0.5 3.3 100 0.0 SSW 7 11 4 6 1013.1 1013.3 0.0
01/12:00am 2.2 -0.6 2.2 100 0.0 W 6 11 3 6 1013.3 1013.4 0.0
 
Date/Time
EST
Temp
°C
App
Temp
°C
Dew
Point
Rel
Hum
%
Delta-T
°C
Wind Press
QNH
hPa
Press
MSL
hPa
Rain
since 9 am
mm
Dir
 
Spd
km/h
Gust
km/h
Spd
kts
Gust
kts
31/11:30pm 2.7 0.4 2.7 100 0.0 E 4 11 2 6 1013.4 1013.5 0.0
31/11:00pm 2.6 0.3 2.6 100 0.0 SW 4 7 2 4 1013.5 1013.6 0.0
31/10:30pm 1.7 -1.2 1.7 100 0.0 SSW 6 11 3 6 1013.8 1013.9 0.0
31/10:00pm 5.2 2.8 5.1 99 0.0 E 7 13 4 7 1014.1 1014.2 0.0
31/09:30pm 5.7 3.0 5.6 99 0.0 E 9 13 5 7 1014.3 1014.4 0.0
31/09:00pm 5.5 2.8 5.4 99 0.0 E 9 11 5 6 1014.9 1015.0 0.0
31/08:30pm 4.3 2.3 4.3 100 0.0 E 4 9 2 5 1015.4 1015.5 0.0
31/08:00pm 3.8 2.4 3.8 100 0.0 CALM 0 0 0 0 1015.7 1015.8 0.0
31/07:30pm 4.3 3.0 4.2 99 0.0 CALM 0 0 0 0 1016.3 1016.4 0.0
31/07:00pm 5.0 3.9 4.9 99 0.0 CALM 0 0 0 0 1016.4 1016.5 0.0
31/06:30pm 6.4 5.6 6.3 99 0.0 CALM 0 0 0 0 1016.3 1016.4 0.0
31/06:00pm 7.6 6.7 5.9 89 0.8 CALM 0 6 0 3 1015.9 1016.0 0.0
31/05:30pm 9.7 8.9 6.6 81 1.5 CALM 0 0 0 0 1015.7 1015.8 0.0
31/05:00pm 12.0 11.2 6.7 70 2.5 CALM 0 0 0 0 1015.9 1016.0 0.0
31/04:30pm 11.7 9.7 6.4 70 2.5 SW 6 9 3 5 1015.9 1016.0 0.0
31/04:00pm 12.0 9.5 6.5 69 2.6 WSW 9 13 5 7 1016.2 1016.3 0.0
31/03:30pm 12.5 9.9 7.6 72 2.4 WSW 11 17 6 9 1016.5 1016.6 0.0
31/03:00pm 12.3 9.1 6.8 69 2.6 WSW 13 17 7 9 1016.9 1017.0 0.0
31/02:30pm 12.5 9.3 7.0 69 2.7 WSW 13 17 7 9 1017.1 1017.2 0.0
31/02:00pm 12.4 8.5 7.3 71 2.5 WSW 17 30 9 16 1017.5 1017.6 0.0
31/01:30pm 12.4 8.1 7.1 70 2.6 W 19 26 10 14 1018.2 1018.3 0.0
31/01:00pm 11.9 7.6 7.2 73 2.3 W 19 28 10 15 1018.9 1019.0 0.0
31/12:30pm 11.1 7.7 7.8 80 1.6 W 15 20 8 11 1019.4 1019.5 0.0
31/12:00pm 10.8 7.0 7.5 80 1.6 W 17 20 9 11 1020.2 1020.3 0.0
31/11:30am 10.1 6.3 7.7 85 1.2 W 17 22 9 12 1020.4 1020.5 0.0
31/11:00am 9.4 5.7 7.8 90 0.8 W 17 28 9 15 1020.7 1020.8 0.0
31/10:30am 9.1 5.0 7.9 92 0.6 W 19 24 10 13 1021.0 1021.1 0.0
31/10:00am 9.7 4.8 8.5 92 0.6 WNW 24 30 13 16 1020.7 1020.8 0.0
31/09:30am 9.3 5.5 9.0 98 0.1 W 19 24 10 13 1020.7 1020.8 0.0
31/09:00am 8.4 5.9 8.3 99 0.0 W 11 19 6 10 1020.7 1020.8 0.8
31/08:30am 7.4 4.3 7.4 100 0.0 W 13 17 7 9 1020.5 1020.6 0.8
31/08:00am 7.2 4.1 7.2 100 0.0 WNW 13 15 7 8 1020.0 1020.1 0.8
31/07:30am 6.9 3.3 6.9 100 0.0 WNW 15 19 8 10 1019.9 1020.0 0.8
31/07:00am 6.9 3.7 6.9 100 0.0 WNW 13 17 7 9 1019.4 1019.5 0.8
31/06:30am 6.6 4.1 6.6 100 0.0 WNW 9 15 5 8 1019.2 1019.3 0.8
31/06:27am 6.6 3.7 6.6 100 0.0 WNW 11 13 6 7 1019.2 1019.3 0.8
31/06:07am 6.7 3.8 6.7 100 0.0 WSW 11 15 6 8 1019.2 1019.3 0.8
31/06:00am 6.6 4.1 6.6 100 0.0 WSW 9 13 5 7 1019.1 1019.2 0.8
31/05:30am 7.1 3.6 7.1 100 0.0 WNW 15 20 8 11 1018.8 1018.9 0.8
31/05:00am 7.4 3.2 7.3 99 0.0 WNW 19 24 10 13 1018.3 1018.4 0.8
31/04:30am 7.6 2.8 7.5 99 0.0 WNW 22 28 12 15 1018.1 1018.2 0.8
31/04:00am 7.4 3.0 7.3 99 0.0 WNW 20 32 11 17 1018.0 1018.1 0.8
31/03:30am 7.4 2.6 7.3 99 0.0 WNW 22 32 12 17 1017.8 1017.9 0.8
31/03:00am 7.7 2.2 7.6 99 0.0 WNW 26 33 14 18 1017.8 1017.9 0.8
31/02:30am 7.9 3.6 7.8 99 0.0 W 20 28 11 15 1017.7 1017.8 0.8
31/02:00am 8.1 3.4 7.8 98 0.1 WNW 22 28 12 15 1017.5 1017.6 0.8
31/01:30am 8.3 3.3 8.0 98 0.1 WNW 24 35 13 19 1017.2 1017.3 0.8
31/01:00am 8.5 2.4 8.2 98 0.1 W 30 39 16 21 1016.8 1016.9 0.8
31/12:30am 8.4 1.9 8.1 98 0.1 W 32 41 17 22 1016.3 1016.4 0.8
31/12:00am 8.6 1.5 8.2 97 0.2 W 35 44 19 24 1016.1 1016.2 0.8
 
Date/Time
EST
Temp
°C
App
Temp
°C
Dew
Point
Rel
Hum
%
Delta-T
°C
Wind Press
QNH
hPa
Press
MSL
hPa
Rain
since 9 am
mm
Dir
 
Spd
km/h
Gust
km/h
Spd
kts
Gust
kts
30/11:30pm 9.2 2.5 8.3 94 0.4 W 33 46 18 25 1016.0 1016.1 0.8
30/11:00pm 9.2 2.6 8.6 96 0.3 W 33 48 18 26 1015.9 1016.0 0.8
30/10:30pm 9.1 2.5 8.5 96 0.3 WNW 33 46 18 25 1015.6 1015.7 0.6
30/10:00pm 9.0 2.9 8.4 96 0.3 W 30 44 16 24 1014.8 1014.9 0.6
30/09:30pm 9.4 3.3 8.3 93 0.5 W 30 41 16 22 1014.1 1014.2 0.2
30/09:00pm 11.2 5.1 6.5 73 2.2 W 28 44 15 24 1013.4 1013.5 0.2
30/08:30pm 10.7 4.6 6.8 77 1.8 W 28 39 15 21 1013.1 1013.3 0.2
30/08:00pm 11.8 6.2 5.4 65 3.0 W 24 33 13 18 1012.7 1012.9 0.0
30/07:30pm 11.8 6.1 5.0 63 3.1 WSW 24 33 13 18 1012.1 1012.3 0.0
30/07:00pm 11.4 7.4 5.1 65 2.9 WSW 15 22 8 12 1011.6 1011.7 0.0
30/06:30pm 10.8 6.7 6.2 73 2.2 WSW 17 20 9 11 1011.4 1011.5 0.0
30/06:00pm 12.2 6.1 4.9 61 3.4 W 26 35 14 19 1010.7 1010.8 0.0
30/05:30pm 12.3 6.3 5.5 63 3.2 W 26 39 14 21 1010.6 1010.7 0.0
30/05:00pm 12.4 6.9 6.0 65 3.0 WNW 24 35 13 19 1011.1 1011.2 0.0
30/04:30pm 12.3 7.7 6.6 68 2.7 WNW 20 37 11 20 1011.6 1011.7 0.0
30/04:00pm 12.0 6.7 6.7 70 2.5 WSW 24 33 13 18 1012.7 1012.9 0.0
30/03:30pm 11.5 10.5 10.2 92 0.7 NE 6 9 3 5 1012.5 1012.7 0.0
30/03:00pm 11.0 9.4 8.2 83 1.4 ENE 6 9 3 5 1012.7 1012.9 0.0
30/02:30pm 11.4 10.3 8.3 81 1.5 SE 4 9 2 5 1013.7 1013.8 0.0
30/02:00pm 11.5 10.2 7.6 77 1.9 SSW 4 9 2 5 1014.2 1014.3 0.0
30/01:30pm 11.3 10.9 8.3 82 1.5 CALM 0 0 0 0 1014.7 1014.8 0.0
30/01:00pm 11.2 11.0 8.9 86 1.1 CALM 0 4 0 2 1015.3 1015.4 0.0
30/12:30pm 10.9 10.0 7.8 81 1.5 NNE 2 7 1 4 1016.4 1016.5 0.0
30/12:00pm 11.0 9.2 7.3 78 1.8 ESE 6 11 3 6 1017.3 1017.4 0.0
30/11:30am 10.5 8.8 7.4 81 1.5 ENE 6 9 3 5 1018.1 1018.2 0.0
30/11:00am 10.1 8.4 8.2 88 0.9 ESE 7 13 4 7 1018.9 1019.0 0.0
30/10:30am 8.5 6.7 7.0 90 0.7 E 6 7 3 4 1019.5 1019.6 0.0
30/10:00am 7.1 6.4 7.1 100 0.0 CALM 0 0 0 0 1019.9 1020.0 0.0
30/09:30am 5.2 3.4 5.2 100 0.0 NE 4 7 2 4 1020.1 1020.2 0.0
30/09:00am 3.1 1.6 3.1 100 0.0 CALM 0 0 0 0 1020.7 1020.8 0.0
30/08:53am 3.1 1.2 3.1 100 0.0 NE 2 6 1 3 1020.6 1020.7 0.0
30/08:30am 1.3 -0.5 1.3 100 0.0 CALM 0 0 0 0 1020.8 1020.9 0.0
30/08:17am 0.5 -1.8 0.5 100 0.0 W 2 6 1 3 1020.9 1021.0 0.0
30/08:13am 0.2 -1.8 0.2 100 0.0 CALM 0 6 0 3 1021.0 1021.1 0.0
30/08:00am -0.3 -2.3 -0.3 100 0.0 CALM 0 0 0 0 1021.2 1021.3 0.0
30/07:58am -0.4 -2.4 -0.4 100 0.0 CALM 0 0 0 0 1021.2 1021.3 0.0
30/07:41am -1.2 -3.4 -1.2 100 0.0 CALM 0 0 0 0 1021.3 1021.4 0.0
30/07:30am -1.2 -3.4 -1.2 100 0.0 CALM 0 0 0 0 1021.4 1021.5 0.0
30/07:00am -1.1 -3.6 -1.1 100 0.0 NNE 2 6 1 3 1021.7 1021.8 0.0
30/06:56am -1.0 -3.9 -1.0 100 0.0 NNE 4 7 2 4 1021.7 1021.8 0.0
30/06:32am 0.3 -2.8 0.3 100 0.0 SSE 6 9 3 5 1021.8 1021.9 0.0
30/06:30am 0.3 -2.8 0.3 100 0.0 SSE 6 9 3 5 1021.9 1022.0 0.0
30/06:13am -0.5 -3.7 -0.5 100 0.0 NE 6 9 3 5 1021.9 1022.0 0.0
30/06:00am -0.8 -3.3 -0.8 100 0.0 NNE 2 7 1 4 1022.1 1022.2 0.0
30/05:30am 0.6 -1.3 0.6 100 0.0 CALM 0 0 0 0 1022.4 1022.5 0.0
30/05:22am 0.5 -1.4 0.5 100 0.0 CALM 0 0 0 0 1022.5 1022.6 0.0
30/05:05am -0.4 -2.8 -0.4 100 0.0 NNW 2 7 1 4 1022.6 1022.7 0.0
30/05:00am -0.2 -2.2 -0.2 100 0.0 CALM 0 7 0 4 1022.6 1022.7 0.0
30/04:30am 1.6 -1.3 1.6 100 0.0 S 6 9 3 5 1022.7 1022.8 0.0
30/04:07am 1.6 -0.1 1.6 100 0.0 CALM 0 4 0 2 1022.9 1023.0 0.0
30/04:00am 1.7 -0.8 1.7 100 0.0 SW 4 6 2 3 1022.9 1023.0 0.0
30/03:41am 1.1 -1.1 1.1 100 0.0 NW 2 9 1 5 1023.3 1023.4 0.0
30/03:30am 1.9 0.2 1.9 100 0.0 CALM 0 7 0 4 1023.2 1023.3 0.0
30/03:19am 1.8 -0.3 1.8 100 0.0 SE 2 7 1 4 1023.5 1023.6 0.0
30/03:00am 1.6 -1.3 1.6 100 0.0 NNE 6 9 3 5 1024.0 1024.1 0.0
30/02:30am 2.6 1.0 2.6 100 0.0 CALM 0 0 0 0 1024.7 1024.8 0.0
30/02:00am 3.4 1.6 3.4 100 0.0 ESE 2 9 1 5 1025.1 1025.2 0.0
30/01:47am 3.2 1.4 3.2 100 0.0 ENE 2 7 1 4 1025.4 1025.5 0.0
30/01:30am 2.7 0.0 2.7 100 0.0 N 6 9 3 5 1025.5 1025.6 0.0
30/01:29am 2.7 0.0 2.7 100 0.0 N 6 9 3 5 1025.5 1025.6 0.0
30/01:00am 3.4 0.8 3.4 100 0.0 NNE 6 13 3 7 1025.7 1025.8 0.0
30/12:30am 4.3 3.0 4.3 100 0.0 CALM 0 0 0 0 1026.3 1026.4 0.0
30/12:00am 4.8 3.6 4.8 100 0.0 CALM 0 0 0 0 1026.8 1026.9 0.0
 
Date/Time
EST
Temp
°C
App
Temp
°C
Dew
Point
Rel
Hum
%
Delta-T
°C
Wind Press
QNH
hPa
Press
MSL
hPa
Rain
since 9 am
mm
Dir
 
Spd
km/h
Gust
km/h
Spd
kts
Gust
kts
29/11:30pm 5.1 3.6 5.1 100 0.0 SW 2 7 1 4 1027.0 1027.2 0.0
29/11:00pm 6.3 4.7 6.3 100 0.0 S 4 7 2 4 1027.0 1027.2 0.0
29/10:30pm 5.8 3.1 5.8 100 0.0 NE 9 13 5 7 1027.1 1027.3 0.0

Other Formats:

Comma delimited format used in spreadsheet applications
http://www.bom.gov.au/fwo/IDV60801/IDV60801.94891.axf

JavaScript Object Notation format (JSON) in row-major order
http://www.bom.gov.au/fwo/IDV60801/IDV60801.94891.json